createdAt,value
2023-03-26T00:02:10.475Z,5.65
2023-03-26T00:04:36.839Z,5.50
2023-03-26T00:07:03.278Z,5.20
2023-03-26T00:09:29.859Z,4.30
2023-03-26T00:11:56.766Z,6.47
2023-03-26T00:14:23.550Z,5.25
2023-03-26T00:16:49.936Z,4.47
2023-03-26T00:19:16.905Z,5.72
2023-03-26T00:21:43.359Z,5.10
2023-03-26T00:24:17.509Z,5.10
2023-03-26T00:26:44.704Z,5.95
2023-03-26T00:29:11.849Z,4.80
2023-03-26T00:31:39.875Z,6.35
2023-03-26T00:34:06.823Z,5.40
2023-03-26T00:36:35.960Z,8.93
2023-03-26T00:39:05.157Z,7.00
2023-03-26T00:41:31.713Z,7.15
2023-03-26T00:43:59.292Z,5.85
2023-03-26T00:46:26.961Z,6.45
2023-03-26T00:48:53.720Z,6.32
2023-03-26T00:51:20.814Z,6.40
2023-03-26T00:53:48.357Z,6.90
2023-03-26T00:56:14.998Z,6.63
2023-03-26T00:58:41.598Z,5.78
2023-03-26T01:01:09.642Z,6.55
2023-03-26T01:03:38.181Z,7.43
2023-03-26T01:06:11.262Z,7.03
2023-03-26T01:11:07.520Z,8.45
2023-03-26T01:13:36.637Z,6.97
2023-03-26T01:16:05.450Z,7.80
2023-03-26T01:18:34.224Z,6.80
2023-03-26T01:21:14.404Z,5.95
2023-03-26T01:23:51.303Z,7.07
2023-03-26T01:26:24.328Z,6.28
2023-03-26T01:28:56.485Z,6.68
2023-03-26T01:31:29.903Z,6.15
2023-03-26T01:34:16.322Z,6.47
2023-03-26T01:36:50.246Z,7.05
2023-03-26T01:39:20.062Z,6.82
2023-03-26T01:41:48.214Z,6.47
2023-03-26T01:44:14.708Z,8.20
2023-03-26T01:46:41.612Z,7.10
2023-03-26T01:49:13.534Z,6.53
2023-03-26T01:51:41.272Z,6.03
2023-03-26T01:54:09.866Z,6.93
2023-03-26T01:56:47.499Z,7.55
2023-03-26T01:59:34.018Z,7.15
2023-03-26T02:02:09.369Z,8.07
2023-03-26T02:04:54.970Z,8.65
2023-03-26T02:07:25.296Z,6.65
2023-03-26T02:09:53.956Z,7.95
2023-03-26T02:12:21.839Z,6.45
2023-03-26T02:14:48.767Z,7.03
2023-03-26T02:17:16.678Z,7.32
2023-03-26T02:19:42.988Z,6.95
2023-03-26T02:22:11.331Z,8.73
2023-03-26T02:24:38.692Z,6.55
2023-03-26T02:27:07.739Z,6.20
2023-03-26T02:29:37.778Z,7.65
2023-03-26T02:32:05.506Z,6.28
2023-03-26T02:34:32.368Z,7.57
2023-03-26T02:36:58.943Z,7.45
2023-03-26T02:39:26.566Z,6.55
2023-03-26T02:41:59.959Z,7.47
2023-03-26T02:44:27.766Z,6.45
2023-03-26T02:46:59.815Z,7.38
2023-03-26T02:49:46.338Z,7.22
2023-03-26T02:52:19.552Z,7.63
2023-03-26T02:54:48.345Z,7.50
2023-03-26T02:57:19.982Z,7.18
2023-03-26T03:00:14.053Z,6.13
2023-03-26T03:02:57.992Z,7.55
2023-03-26T03:05:32.781Z,7.07
2023-03-26T03:08:26.594Z,6.95
2023-03-26T03:11:14.991Z,6.55
2023-03-26T03:13:46.426Z,7.07
2023-03-26T03:16:17.146Z,8.18
2023-03-26T03:18:43.547Z,7.47
2023-03-26T03:21:10.316Z,7.05
2023-03-26T03:23:36.750Z,7.43
2023-03-26T03:26:16.654Z,6.85
2023-03-26T03:28:49.684Z,7.30
2023-03-26T03:31:17.527Z,8.20
2023-03-26T03:33:46.184Z,8.57
2023-03-26T03:36:19.700Z,7.00
2023-03-26T03:38:49.840Z,7.30
2023-03-26T03:41:19.224Z,8.10
2023-03-26T03:43:46.683Z,9.15
2023-03-26T03:46:17.522Z,9.68
2023-03-26T03:48:49.716Z,9.02
2023-03-26T03:53:50.101Z,8.98
2023-03-26T03:56:27.474Z,9.07
2023-03-26T03:59:12.502Z,11.35
2023-03-26T04:01:39.016Z,10.73
2023-03-26T04:04:09.410Z,13.50
2023-03-26T04:06:56.119Z,12.68
2023-03-26T04:09:25.164Z,13.52
2023-03-26T04:11:54.556Z,14.07
2023-03-26T04:14:41.233Z,13.07
2023-03-26T04:17:15.450Z,14.50
2023-03-26T04:19:44.179Z,15.57
2023-03-26T04:22:12.826Z,14.27
2023-03-26T04:24:50.156Z,15.57
2023-03-26T04:27:32.351Z,17.23
2023-03-26T04:30:20.593Z,16.88
2023-03-26T04:32:54.316Z,15.63
2023-03-26T04:35:20.908Z,15.00
2023-03-26T04:37:52.904Z,15.73
2023-03-26T04:40:26.137Z,15.25
2023-03-26T04:43:12.388Z,15.85
2023-03-26T04:45:55.377Z,15.85
2023-03-26T04:48:24.772Z,16.17
2023-03-26T04:50:51.354Z,16.50
2023-03-26T04:53:21.278Z,17.08
2023-03-26T04:56:08.696Z,17.45
2023-03-26T04:58:59.736Z,16.77
2023-03-26T05:01:30.749Z,16.90
2023-03-26T05:03:58.533Z,16.95
2023-03-26T05:06:28.478Z,15.43
2023-03-26T05:08:55.318Z,16.77
2023-03-26T05:11:48.446Z,15.65
2023-03-26T05:14:14.948Z,19.05
2023-03-26T05:16:42.103Z,13.32
2023-03-26T05:19:08.981Z,14.70
2023-03-26T05:21:35.806Z,15.43
2023-03-26T05:24:02.549Z,16.25
2023-03-26T05:26:29.219Z,17.20
2023-03-26T05:28:56.820Z,14.48
2023-03-26T05:31:27.890Z,15.63
2023-03-26T05:33:56.844Z,17.42
2023-03-26T05:36:23.377Z,16.92
2023-03-26T05:39:04.857Z,15.07
2023-03-26T05:41:49.987Z,16.10
2023-03-26T05:44:17.297Z,16.83
2023-03-26T05:46:44.273Z,16.10
2023-03-26T05:49:18.141Z,15.90
2023-03-26T05:51:44.525Z,14.52
2023-03-26T05:54:30.556Z,16.42
2023-03-26T05:57:15.287Z,16.27
2023-03-26T06:00:00.305Z,18.73
2023-03-26T06:02:46.732Z,17.48
2023-03-26T06:05:22.775Z,17.10
2023-03-26T06:08:07.741Z,15.63
2023-03-26T06:10:38.160Z,15.73
2023-03-26T06:13:04.719Z,16.77
2023-03-26T06:15:31.374Z,16.80
2023-03-26T06:18:00.648Z,16.35
2023-03-26T06:20:53.338Z,15.38
2023-03-26T06:23:28.078Z,16.15
2023-03-26T06:26:15.925Z,17.02
2023-03-26T06:29:01.102Z,15.98
2023-03-26T06:31:53.505Z,16.00
2023-03-26T06:34:33.448Z,15.98
2023-03-26T06:36:59.859Z,16.33
2023-03-26T06:39:26.815Z,15.90
2023-03-26T06:42:16.399Z,17.15
2023-03-26T06:44:56.304Z,15.13
2023-03-26T06:47:31.618Z,17.73
2023-03-26T06:49:57.943Z,16.17
2023-03-26T06:52:34.935Z,15.95
2023-03-26T06:55:10.456Z,14.68
2023-03-26T06:57:55.040Z,16.33
2023-03-26T07:00:40.386Z,16.58
2023-03-26T07:03:25.315Z,15.68
2023-03-26T07:06:10.390Z,14.38
2023-03-26T07:08:56.368Z,17.13
2023-03-26T07:11:41.204Z,15.65
2023-03-26T07:14:27.954Z,17.50
2023-03-26T07:17:12.645Z,15.10
2023-03-26T07:19:52.682Z,15.23
2023-03-26T07:22:23.394Z,16.03
2023-03-26T07:25:14.002Z,16.17
2023-03-26T07:30:58.628Z,16.05
2023-03-26T07:34:11.054Z,15.98
2023-03-26T07:37:21.572Z,16.77
2023-03-26T07:40:26.723Z,16.63
2023-03-26T07:43:20.326Z,15.68
2023-03-26T07:46:05.689Z,14.77
2023-03-26T07:48:53.981Z,16.67
2023-03-26T07:51:38.872Z,15.65
2023-03-26T07:54:25.156Z,15.65
2023-03-26T07:57:44.440Z,15.73
2023-03-26T08:00:37.084Z,15.05
2023-03-26T08:03:16.447Z,12.98
2023-03-26T08:06:07.696Z,18.13
2023-03-26T08:09:07.822Z,17.55
2023-03-26T08:12:10.646Z,17.58
2023-03-26T08:14:44.188Z,15.77
2023-03-26T08:17:13.148Z,15.98
2023-03-26T08:19:58.408Z,13.60
2023-03-26T08:22:45.630Z,16.65
2023-03-26T08:25:33.199Z,15.25
2023-03-26T08:28:18.057Z,17.45
2023-03-26T08:30:44.644Z,17.73
2023-03-26T08:33:19.026Z,17.40
2023-03-26T08:35:46.064Z,18.95
2023-03-26T08:38:13.547Z,18.85
2023-03-26T08:40:39.896Z,17.00
2023-03-26T08:43:18.961Z,16.90
2023-03-26T08:45:47.309Z,18.38
2023-03-26T08:48:32.447Z,18.15
2023-03-26T08:51:01.630Z,18.65
2023-03-26T08:53:45.335Z,18.77
2023-03-26T08:56:39.942Z,18.95
2023-03-26T09:01:51.680Z,18.10
2023-03-26T09:04:36.728Z,16.17
2023-03-26T09:07:18.506Z,16.05
2023-03-26T09:10:02.058Z,17.05
2023-03-26T09:12:57.723Z,19.25
2023-03-26T09:15:36.177Z,20.25
2023-03-26T09:18:21.015Z,18.15
2023-03-26T09:21:06.287Z,19.73
2023-03-26T09:23:52.543Z,13.05
2023-03-26T09:26:26.163Z,8.55
2023-03-26T09:29:11.145Z,18.52
2023-03-26T09:31:58.081Z,19.10
2023-03-26T09:34:24.695Z,14.40
2023-03-26T09:36:51.001Z,15.85
2023-03-26T09:39:17.377Z,15.20
2023-03-26T09:41:52.425Z,12.35
2023-03-26T09:44:18.778Z,13.30
2023-03-26T09:47:00.632Z,14.40
2023-03-26T09:49:35.835Z,12.20
2023-03-26T09:52:21.064Z,15.45
2023-03-26T09:55:07.956Z,11.23
2023-03-26T09:57:45.178Z,11.70
2023-03-26T10:00:20.913Z,9.93
2023-03-26T10:02:57.957Z,11.75
2023-03-26T10:05:34.102Z,11.93
2023-03-26T10:08:11.075Z,11.18
2023-03-26T10:10:49.257Z,8.25
2023-03-26T10:13:15.704Z,9.30
2023-03-26T10:16:01.106Z,9.20
2023-03-26T10:18:36.012Z,9.13
2023-03-26T10:21:08.289Z,8.65
2023-03-26T10:23:50.868Z,8.90
2023-03-26T10:26:20.186Z,9.60
2023-03-26T10:28:46.536Z,9.55
2023-03-26T10:31:31.876Z,9.65
2023-03-26T10:34:09.409Z,6.38
2023-03-26T10:37:05.014Z,6.10
2023-03-26T10:40:00.590Z,7.10
2023-03-26T10:42:30.210Z,6.32
2023-03-26T10:45:11.693Z,6.40
2023-03-26T10:47:38.056Z,5.88
2023-03-26T10:50:10.457Z,6.60
2023-03-26T10:52:57.125Z,5.78
2023-03-26T10:55:30.633Z,6.40
2023-03-26T10:58:02.767Z,6.88
2023-03-26T11:00:30.082Z,7.85
2023-03-26T11:03:22.613Z,7.78
2023-03-26T11:05:48.979Z,7.17
2023-03-26T11:08:21.368Z,5.25
2023-03-26T11:11:07.016Z,5.82
2023-03-26T11:13:43.890Z,6.15
2023-03-26T11:16:27.827Z,6.43
2023-03-26T11:18:59.022Z,6.32
2023-03-26T11:21:39.490Z,5.88
2023-03-26T11:24:09.736Z,5.82
2023-03-26T11:26:39.446Z,5.75
2023-03-26T11:29:33.467Z,4.90
2023-03-26T11:32:02.878Z,5.75
2023-03-26T11:34:38.610Z,5.43
2023-03-26T11:37:08.054Z,5.25
2023-03-26T11:39:42.975Z,9.35
2023-03-26T11:42:13.888Z,5.97
2023-03-26T11:45:02.237Z,5.20
2023-03-26T11:47:49.361Z,5.88
2023-03-26T11:50:20.609Z,4.25
2023-03-26T11:52:48.104Z,5.68
2023-03-26T11:55:15.832Z,5.57
2023-03-26T11:57:46.247Z,5.30
2023-03-26T12:00:21.225Z,4.25
2023-03-26T12:02:48.244Z,3.70
2023-03-26T12:05:20.995Z,4.15
2023-03-26T12:10:24.676Z,2.80
2023-03-26T12:13:00.461Z,4.22
2023-03-26T12:15:27.397Z,4.07
2023-03-26T12:17:56.460Z,3.40
2023-03-26T12:20:25.901Z,3.67
2023-03-26T12:22:53.560Z,4.03
2023-03-26T12:25:22.250Z,3.15
2023-03-26T12:27:49.809Z,5.60
2023-03-26T12:30:19.812Z,3.70
2023-03-26T12:32:47.255Z,3.72
2023-03-26T12:35:18.927Z,3.45
2023-03-26T12:37:47.468Z,3.38
2023-03-26T12:40:26.081Z,3.33
2023-03-26T12:44:49.799Z,2.85
2023-03-26T12:45:43.079Z,3.60
2023-03-26T12:48:15.418Z,3.63
2023-03-26T12:51:00.764Z,3.88
2023-03-26T12:53:49.978Z,2.97
2023-03-26T12:56:21.886Z,3.20
2023-03-26T12:59:01.231Z,4.15
2023-03-26T13:01:34.773Z,2.58
2023-03-26T13:04:11.204Z,2.95
2023-03-26T13:07:06.406Z,2.92
2023-03-26T13:09:53.056Z,4.25
2023-03-26T13:12:31.472Z,2.78
2023-03-26T13:15:13.323Z,2.20
2023-03-26T13:17:40.285Z,3.33
2023-03-26T13:20:30.491Z,2.95
2023-03-26T13:23:07.081Z,3.20
2023-03-26T13:25:41.611Z,2.55
2023-03-26T13:28:17.177Z,2.75
2023-03-26T13:30:45.542Z,4.13
2023-03-26T13:33:30.882Z,2.45
2023-03-26T13:36:14.274Z,3.28
2023-03-26T13:39:05.011Z,4.10
2023-03-26T13:41:49.894Z,1.67
2023-03-26T13:44:16.868Z,2.95
2023-03-26T13:46:47.232Z,3.80
2023-03-26T13:49:15.631Z,2.83
2023-03-26T13:51:44.643Z,2.33
2023-03-26T13:54:18.646Z,2.70
2023-03-26T13:56:52.004Z,2.40
2023-03-26T13:59:21.136Z,2.92
2023-03-26T14:01:55.704Z,2.42
2023-03-26T14:04:32.035Z,2.45
2023-03-26T14:07:06.248Z,2.67
2023-03-26T14:09:38.528Z,2.67
2023-03-26T14:12:21.490Z,2.20
2023-03-26T14:14:51.695Z,1.98
2023-03-26T14:17:21.289Z,1.65
2023-03-26T14:19:53.690Z,2.92
2023-03-26T14:22:38.191Z,1.77
2023-03-26T14:25:10.828Z,2.03
2023-03-26T14:30:13.373Z,2.40
2023-03-26T14:32:58.554Z,2.85
2023-03-26T14:35:41.402Z,2.33
2023-03-26T14:38:29.640Z,2.08
2023-03-26T14:40:57.782Z,2.58
2023-03-26T14:43:24.514Z,1.75
2023-03-26T14:46:03.919Z,2.55
2023-03-26T14:48:36.679Z,2.38
2023-03-26T14:53:42.083Z,2.97
2023-03-26T14:56:15.646Z,2.70
2023-03-26T14:58:54.422Z,3.63
2023-03-26T15:01:21.198Z,2.72
2023-03-26T15:04:06.239Z,2.78
2023-03-26T15:06:41.870Z,2.80
2023-03-26T15:09:21.276Z,2.35
2023-03-26T15:11:53.596Z,2.45
2023-03-26T15:14:57.926Z,2.38
2023-03-26T15:17:34.327Z,2.53
2023-03-26T15:20:26.063Z,1.80
2023-03-26T15:23:10.700Z,2.63
2023-03-26T15:25:55.764Z,2.65
2023-03-26T15:28:34.220Z,2.20
2023-03-26T15:31:09.794Z,1.90
2023-03-26T15:33:55.053Z,2.42
2023-03-26T15:36:37.086Z,2.00
2023-03-26T15:39:23.334Z,1.73
2023-03-26T15:42:00.231Z,1.85
2023-03-26T15:44:40.959Z,2.50
2023-03-26T15:47:30.720Z,2.65
2023-03-26T15:50:06.155Z,2.22
2023-03-26T15:52:36.317Z,2.88
2023-03-26T15:55:03.938Z,1.92
2023-03-26T15:57:30.545Z,2.90
2023-03-26T16:00:15.116Z,2.55
2023-03-26T16:02:45.160Z,2.85
2023-03-26T16:05:21.227Z,1.88
2023-03-26T16:07:47.924Z,2.60
2023-03-26T16:10:49.665Z,2.42
2023-03-26T16:13:34.822Z,1.88
2023-03-26T16:16:01.273Z,2.88
2023-03-26T16:18:27.736Z,2.78
2023-03-26T16:20:54.908Z,3.55
2023-03-26T16:23:30.562Z,2.60
2023-03-26T16:26:05.983Z,2.53
2023-03-26T16:28:33.951Z,2.25
2023-03-26T16:31:36.640Z,1.80
2023-03-26T16:34:02.001Z,1.90
2023-03-26T16:36:38.886Z,2.00
2023-03-26T16:39:05.532Z,2.58
2023-03-26T16:41:50.023Z,3.17
2023-03-26T16:44:22.338Z,2.30
2023-03-26T16:46:57.811Z,2.78
2023-03-26T16:49:39.352Z,2.10
2023-03-26T16:52:14.914Z,2.75
2023-03-26T16:57:27.830Z,1.58
2023-03-26T17:00:13.929Z,1.92
2023-03-26T17:02:56.680Z,2.03
2023-03-26T17:07:54.890Z,1.77
2023-03-26T17:10:21.401Z,2.07
2023-03-26T17:12:54.105Z,1.85
2023-03-26T17:17:55.870Z,1.95
2023-03-26T17:20:33.355Z,2.30
2023-03-26T17:23:04.816Z,2.20
2023-03-26T17:25:37.308Z,1.80
2023-03-26T17:28:39.215Z,1.63
2023-03-26T17:31:35.302Z,3.45
2023-03-26T17:34:20.733Z,2.83
2023-03-26T17:36:55.164Z,2.25
2023-03-26T17:39:46.724Z,2.10
2023-03-26T17:42:13.856Z,2.13
2023-03-26T17:44:40.325Z,1.88
2023-03-26T17:47:13.108Z,1.77
2023-03-26T17:52:15.755Z,1.75
2023-03-26T17:54:44.306Z,2.20
2023-03-26T17:57:13.778Z,2.40
2023-03-26T17:59:40.821Z,1.60
2023-03-26T18:02:12.452Z,2.40
2023-03-26T18:04:40.972Z,3.30
2023-03-26T18:07:19.471Z,1.83
2023-03-26T18:09:53.244Z,3.00
2023-03-26T18:12:19.592Z,2.10
2023-03-26T18:14:57.950Z,1.90
2023-03-26T18:17:24.754Z,1.75
2023-03-26T18:19:55.270Z,2.42
2023-03-26T18:22:26.571Z,7.15
2023-03-26T18:24:56.043Z,2.70
2023-03-26T18:27:22.900Z,2.45
2023-03-26T18:30:02.929Z,2.13
2023-03-26T18:32:31.263Z,2.28
2023-03-26T18:34:59.111Z,2.78
2023-03-26T18:37:31.735Z,1.55
2023-03-26T18:40:08.749Z,2.03
2023-03-26T18:42:36.144Z,1.60
2023-03-26T18:45:10.398Z,2.28
2023-03-26T18:47:38.330Z,2.35
2023-03-26T18:50:04.983Z,2.60
2023-03-26T18:52:31.930Z,4.03
2023-03-26T18:55:01.368Z,3.70
2023-03-26T18:57:28.876Z,2.97
2023-03-26T18:59:57.277Z,2.10
2023-03-26T19:02:25.173Z,1.88
2023-03-26T19:04:54.640Z,2.72
2023-03-26T19:07:25.096Z,2.20
2023-03-26T19:09:56.276Z,1.90
2023-03-26T19:12:28.142Z,2.72
2023-03-26T19:14:55.805Z,2.70
2023-03-26T19:17:23.105Z,2.30
2023-03-26T19:19:50.623Z,5.20
2023-03-26T19:22:17.880Z,2.70
2023-03-26T19:24:44.366Z,2.58
2023-03-26T19:27:11.218Z,2.58
2023-03-26T19:29:44.333Z,1.85
2023-03-26T19:32:21.367Z,2.95
2023-03-26T19:34:48.161Z,3.03
2023-03-26T19:37:18.804Z,3.47
2023-03-26T19:39:50.117Z,2.67
2023-03-26T19:42:20.662Z,2.38
2023-03-26T19:44:47.633Z,2.05
2023-03-26T19:47:43.529Z,2.78
2023-03-26T19:50:27.252Z,2.05
2023-03-26T19:53:15.177Z,2.10
2023-03-26T19:55:51.879Z,2.10
2023-03-26T19:58:21.906Z,2.22
2023-03-26T20:00:52.624Z,2.88
2023-03-26T20:03:24.210Z,2.60
2023-03-26T20:05:54.942Z,2.15
2023-03-26T20:08:26.905Z,2.20
2023-03-26T20:10:54.702Z,2.25
2023-03-26T20:13:22.454Z,2.22
2023-03-26T20:16:05.871Z,1.70
2023-03-26T20:18:34.987Z,2.65
2023-03-26T20:21:01.374Z,2.72
2023-03-26T20:23:28.852Z,1.88
2023-03-26T20:25:55.493Z,1.38
2023-03-26T20:30:57.022Z,2.63
2023-03-26T20:33:27.928Z,1.80
2023-03-26T20:35:55.613Z,1.38
2023-03-26T20:38:36.689Z,1.90
2023-03-26T20:41:06.129Z,2.08
2023-03-26T20:43:33.830Z,1.95
2023-03-26T20:46:00.550Z,1.80
2023-03-26T20:48:26.908Z,1.65
2023-03-26T20:50:54.001Z,1.77
2023-03-26T20:53:20.430Z,2.22
2023-03-26T20:55:46.899Z,1.98
2023-03-26T20:58:31.403Z,2.38
2023-03-26T21:01:00.232Z,2.10
2023-03-26T21:03:26.784Z,2.08
2023-03-26T21:05:53.229Z,1.85
2023-03-26T21:08:19.943Z,1.85
2023-03-26T21:10:46.735Z,1.98
2023-03-26T21:13:20.166Z,1.63
2023-03-26T21:15:46.643Z,3.08
2023-03-26T21:18:13.152Z,2.08
2023-03-26T21:20:41.191Z,2.17
2023-03-26T21:23:07.507Z,1.45
2023-03-26T21:25:33.888Z,1.65
2023-03-26T21:28:32.244Z,2.65
2023-03-26T21:31:12.317Z,1.90
2023-03-26T21:33:40.920Z,1.90
2023-03-26T21:36:07.767Z,2.08
2023-03-26T21:38:34.377Z,1.50
2023-03-26T21:41:01.501Z,2.30
2023-03-26T21:43:28.055Z,1.55
2023-03-26T21:45:54.870Z,1.88
2023-03-26T21:48:21.649Z,2.53
2023-03-26T21:50:48.401Z,2.28
2023-03-26T21:53:15.440Z,2.60
2023-03-26T21:55:46.544Z,2.00
2023-03-26T21:58:18.407Z,2.03
2023-03-26T22:01:00.777Z,2.43
2023-03-26T22:03:27.483Z,2.60
2023-03-26T22:06:05.417Z,2.58
2023-03-26T22:08:36.928Z,2.45
2023-03-26T22:11:03.340Z,1.63
2023-03-26T22:13:30.991Z,2.20
2023-03-26T22:15:57.677Z,2.03
2023-03-26T22:18:25.907Z,1.95
2023-03-26T22:20:52.850Z,1.85
2023-03-26T22:23:19.784Z,1.35
2023-03-26T22:25:46.499Z,1.45
2023-03-26T22:28:12.910Z,1.88
2023-03-26T22:30:39.540Z,1.60
2023-03-26T22:33:08.433Z,1.83
2023-03-26T22:35:34.847Z,2.08
2023-03-26T22:38:01.355Z,2.03
2023-03-26T22:40:27.916Z,2.33
2023-03-26T22:42:54.293Z,1.70
2023-03-26T22:45:20.669Z,2.08
2023-03-26T22:47:47.238Z,1.80
2023-03-26T22:50:13.777Z,1.73
2023-03-26T22:52:40.876Z,1.70
2023-03-26T22:55:08.260Z,2.25
2023-03-26T22:57:34.617Z,2.47
2023-03-26T23:00:12.490Z,2.40
2023-03-26T23:02:39.700Z,2.17
2023-03-26T23:05:06.207Z,2.00
2023-03-26T23:07:32.558Z,1.83
2023-03-26T23:09:58.987Z,1.98
2023-03-26T23:12:25.335Z,1.73
2023-03-26T23:14:52.936Z,2.10
2023-03-26T23:17:19.604Z,1.75
2023-03-26T23:19:46.722Z,1.90
2023-03-26T23:22:13.514Z,1.85
2023-03-26T23:24:39.930Z,1.73
2023-03-26T23:27:07.026Z,1.92
2023-03-26T23:29:33.518Z,2.28
2023-03-26T23:32:00.239Z,1.95
2023-03-26T23:34:26.567Z,1.88
2023-03-26T23:36:53.731Z,1.60
2023-03-26T23:39:20.184Z,2.22
2023-03-26T23:41:46.502Z,2.03
2023-03-26T23:44:13.443Z,1.90
2023-03-26T23:46:42.621Z,2.65
2023-03-26T23:49:10.726Z,1.90
2023-03-26T23:51:37.082Z,1.85
2023-03-26T23:54:05.100Z,1.65
2023-03-26T23:56:31.936Z,1.95
2023-03-26T23:58:59.208Z,2.03
